Latest Weather Observations for Gabo Island

IDV60801

Issued at 5:12 am EDT Tuesday 19 January 2021 (issued every 10 minutes, with the page automatically refreshed every 10 minutes)

About weather observations | Map of weather stations | Latest weather observations for VIC | Other Formats
Station Details ID: 084016 Name: GABO ISLAND LIGHTHOUSE Lat: -37.57 Lon: 149.92 Height: 15.0 m
Data from the previous 72 hours. | See also: Recent months at Gabo Island
Date/Time
EDT
Temp
°C
App
Temp
°C
Dew
Point
°C
Rel
Hum
%
Delta-T
°C
Wind Press
QNH
hPa
Press
MSL
hPa
Rain since
9am
mm
Dir  Spd
km/h
Gust
km/h
Spd
kts
Gust
kts
19/05:00am 15.9 7.4 12.0 77 2.1 WSW 48 61 26 33 1015.2 1015.2 0.0
19/04:30am 16.5 8.6 10.9 69 3.0 WSW 43 52 23 28 1014.7 1014.7 0.0
19/04:00am 16.5 8.6 11.3 71 2.8 WSW 44 57 24 31 1014.3 1014.3 0.0
19/03:30am 16.6 8.6 11.2 70 2.9 WSW 44 59 24 32 1014.1 1014.1 0.0
19/03:00am 16.8 9.0 11.2 69 3.0 WSW 43 57 23 31 1014.3 1014.3 0.0
19/02:44am 16.6 8.1 10.6 67 3.2 WSW 46 65 25 35 1014.0 1014.0 0.0
19/02:30am 16.8 8.0 11.0 68 3.1 WSW 48 61 26 33 1014.0 1014.0 0.0
19/02:05am 16.8 8.1 11.2 69 3.0 WSW 48 67 26 36 1013.7 1013.7 0.0
19/02:00am 16.9 7.5 11.4 70 3.0 WSW 52 67 28 36 1013.9 1013.9 0.0
19/01:37am 17.3 9.2 12.0 71 2.9 WSW 46 65 25 35 1013.5 1013.5 0.0
19/01:30am 17.3 8.7 11.8 70 3.0 WSW 48 59 26 32 1013.2 1013.2 0.0
19/01:14am 17.3 9.4 11.6 69 3.1 WSW 44 65 24 35 1013.4 1013.4 0.0
19/01:00am 17.6 10.1 12.2 70 3.0 WSW 43 57 23 31 1013.3 1013.3 0.0
19/12:30am 17.5 9.8 11.6 68 3.2 WSW 43 59 23 32 1013.2 1013.2 0.0
19/12:00am 17.7 9.5 11.7 68 3.3 WSW 46 59 25 32 1013.0 1013.0 0.0
 
Date/Time
EDT
Temp
°C
App
Temp
°C
Dew
Point
°C
Rel
Hum
%
Delta-T
°C
Wind Press
QNH
hPa
Press
MSL
hPa
Rain since
9am
mm
Dir  Spd
km/h
Gust
km/h
Spd
kts
Gust
kts
18/11:30pm 17.6 9.3 11.5 67 3.3 WSW 46 59 25 32 1012.8 1012.8 0.0
18/11:00pm 17.7 8.7 11.7 68 3.3 WSW 50 65 27 35 1012.9 1012.9 0.0
18/10:54pm 17.7 9.5 11.7 68 3.3 WSW 46 65 25 35 1012.9 1012.9 0.0
18/10:30pm 17.7 10.3 12.5 71 2.9 WSW 43 54 23 29 1013.1 1013.1 0.0
18/10:00pm 17.8 11.6 12.8 72 2.8 WSW 37 50 20 27 1013.0 1013.0 0.0
18/09:30pm 17.9 11.0 12.7 71 2.9 WSW 41 54 22 29 1012.6 1012.6 0.0
18/09:00pm 18.2 11.0 13.2 72 2.8 WSW 43 52 23 28 1012.4 1012.4 0.0
18/08:30pm 18.1 11.2 12.7 70 3.0 WSW 41 50 22 27 1012.1 1012.1 0.0
18/08:00pm 18.5 12.1 13.2 71 3.0 WSW 39 48 21 26 1011.7 1011.7 0.0
18/07:30pm 19.0 11.8 13.2 69 3.3 SW 43 56 23 30 1011.3 1011.3 0.0
18/07:00pm 19.1 11.5 13.5 70 3.2 SW 46 57 25 31 1011.0 1011.0 0.0
18/06:30pm 18.9 9.2 13.5 71 3.1 SW 57 70 31 38 1010.8 1010.8 0.0
18/06:00pm 19.0 8.7 14.0 73 2.9 SW 61 76 33 41 1010.2 1010.2 0.0
18/05:30pm 18.9 8.6 15.0 78 2.3 SW 63 74 34 40 1009.8 1009.8 0.0
18/05:00pm 19.3 8.7 14.3 73 2.9 SW 63 72 34 39 1009.7 1009.7 0.0
18/04:30pm 19.5 9.1 13.8 69 3.3 SW 61 70 33 38 1009.7 1009.7 0.0
18/04:00pm 19.4 10.3 13.8 70 3.2 SW 54 67 29 36 1009.9 1009.9 0.0
18/03:30pm 19.4 10.7 13.6 69 3.3 SSW 52 63 28 34 1010.2 1010.2 0.0
18/03:00pm 19.4 11.0 13.6 69 3.3 SW 50 59 27 32 1010.6 1010.6 0.0
18/02:30pm 19.5 11.9 13.7 69 3.3 SW 46 56 25 30 1010.9 1010.9 0.0
18/02:00pm 19.2 11.8 13.2 68 3.4 SW 44 52 24 28 1011.5 1011.5 0.0
18/01:30pm 19.7 13.1 12.6 63 4.0 SW 39 52 21 28 1012.0 1012.0 0.0
18/01:00pm 21.7 16.5 12.7 56 5.1 WSW 32 35 17 19 1012.6 1012.6 0.0
18/12:30pm 22.3 16.8 12.0 52 5.8 WSW 32 41 17 22 1013.1 1013.1 0.0
18/12:00pm 22.0 17.6 12.9 56 5.2 WSW 28 37 15 20 1013.4 1013.4 0.0
18/11:30am 21.1 15.5 12.0 56 5.1 WSW 33 43 18 23 1013.8 1013.8 0.0
18/11:00am 20.1 13.6 11.6 58 4.7 WSW 37 44 20 24 1013.9 1013.9 0.0
18/10:30am 20.4 14.6 11.5 56 4.9 WSW 33 43 18 23 1014.2 1014.2 0.0
18/10:00am 19.6 13.9 11.0 57 4.7 WSW 32 41 17 22 1014.3 1014.3 0.0
18/09:30am 19.1 13.5 11.4 61 4.2 WSW 32 41 17 22 1014.5 1014.5 0.0
18/09:00am 18.4 12.6 11.4 63 3.8 WSW 33 43 18 23 1014.5 1014.5 0.0
18/08:30am 17.4 10.7 10.9 65 3.5 WSW 37 48 20 26 1014.2 1014.2 0.0
18/08:00am 16.8 9.7 11.0 68 3.1 WSW 39 48 21 26 1014.1 1014.1 0.0
18/07:30am 16.1 9.4 11.1 72 2.7 W 37 48 20 26 1014.1 1014.1 0.0
18/07:00am 15.4 9.1 10.9 74 2.4 W 35 44 19 24 1014.1 1014.1 0.0
18/06:30am 14.9 8.5 10.7 76 2.2 W 35 44 19 24 1014.1 1014.1 0.0
18/06:00am 14.6 7.8 10.8 78 2.0 W 37 48 20 26 1014.1 1014.1 0.0
18/05:30am 14.7 8.4 10.9 78 2.0 WSW 35 44 19 24 1013.7 1013.7 0.0
18/05:00am 14.7 8.7 10.7 77 2.1 W 33 41 18 22 1013.6 1013.6 0.0
18/04:30am 14.9 9.0 11.1 78 2.0 W 33 39 18 21 1013.4 1013.4 0.0
18/04:00am 15.1 10.3 11.8 81 1.8 W 28 37 15 20 1013.4 1013.4 0.0
18/03:30am 14.9 11.6 11.7 81 1.7 WNW 20 28 11 15 1013.7 1013.7 0.0
18/03:00am 15.2 11.7 12.1 82 1.7 W 22 28 12 15 1014.0 1014.0 0.0
18/02:30am 15.3 12.1 12.0 81 1.8 W 20 28 11 15 1014.2 1014.2 0.0
18/02:00am 15.1 12.4 11.6 79 1.9 WNW 17 24 9 13 1014.4 1014.4 0.0
18/01:30am 15.2 12.4 11.5 78 2.0 WNW 17 24 9 13 1014.7 1014.7 0.0
18/01:00am 15.2 12.4 11.5 78 2.0 WNW 17 26 9 14 1015.1 1015.1 0.0
18/12:30am 15.4 12.6 11.5 77 2.1 WNW 17 28 9 15 1015.2 1015.2 0.0
18/12:00am 15.7 12.1 12.0 78 2.0 W 22 30 12 16 1015.2 1015.2 0.0
 
Date/Time
EDT
Temp
°C
App
Temp
°C
Dew
Point
°C
Rel
Hum
%
Delta-T
°C
Wind Press
QNH
hPa
Press
MSL
hPa
Rain since
9am
mm
Dir  Spd
km/h
Gust
km/h
Spd
kts
Gust
kts
17/11:30pm 16.2 11.9 12.0 76 2.3 W 26 33 14 18 1015.4 1015.4 0.0
17/11:00pm 16.2 11.8 11.8 75 2.4 W 26 33 14 18 1015.5 1015.5 0.0
17/10:30pm 16.3 11.1 11.7 74 2.5 W 30 39 16 21 1015.6 1015.6 0.0
17/10:00pm 16.5 11.3 11.5 72 2.7 W 30 37 16 20 1015.6 1015.6 0.0
17/09:30pm 16.7 11.4 11.3 70 2.9 WSW 30 35 16 19 1015.3 1015.3 0.0
17/09:00pm 16.9 10.6 10.9 67 3.2 WSW 35 44 19 24 1015.0 1015.0 0.0
17/08:30pm 17.2 9.5 11.5 69 3.1 SW 43 52 23 28 1014.6 1014.6 0.0
17/08:00pm 17.4 8.4 11.5 68 3.2 SW 50 61 27 33 1014.4 1014.4 0.0
17/07:30pm 17.7 8.8 11.9 69 3.2 SW 50 59 27 32 1014.1 1014.1 0.0
17/07:00pm 17.7 8.9 10.8 64 3.7 SW 48 57 26 31 1013.6 1013.6 0.0
17/06:30pm 17.7 8.0 10.6 63 3.8 SW 52 61 28 33 1013.2 1013.2 0.0
17/06:00pm 17.9 8.6 10.6 62 3.9 SW 50 59 27 32 1013.3 1013.3 0.0
17/05:30pm 17.9 8.2 10.4 61 4.0 SW 52 59 28 32 1013.2 1013.2 0.0
17/05:00pm 17.7 7.3 10.6 63 3.8 SW 56 63 30 34 1013.3 1013.3 0.0
17/04:30pm 18.0 7.9 10.3 60 4.1 SW 54 63 29 34 1013.5 1013.5 0.0
17/04:00pm 18.0 7.4 9.9 59 4.3 SW 56 67 30 36 1013.8 1013.8 0.0
17/03:30pm 18.0 7.1 9.4 57 4.5 SW 57 67 31 36 1014.0 1014.0 0.0
17/03:00pm 17.7 6.6 8.8 56 4.6 SW 57 70 31 38 1014.1 1014.1 0.0
17/02:30pm 17.9 7.8 10.4 61 4.0 SW 54 63 29 34 1014.2 1014.2 0.0
17/02:00pm 18.6 8.6 9.5 55 4.8 SW 52 65 28 35 1014.4 1014.4 0.0
17/01:30pm 18.4 8.9 9.7 57 4.6 SW 50 61 27 33 1014.6 1014.6 0.0
17/01:00pm 18.8 9.7 8.6 51 5.3 WSW 46 54 25 29 1014.8 1014.8 0.0
17/12:30pm 17.6 8.0 9.4 58 4.3 SW 50 65 27 35 1014.6 1014.6 0.0
17/12:00pm 18.9 10.3 8.2 50 5.5 WSW 43 50 23 27 1014.6 1014.6 0.0
17/11:30am 18.4 9.7 8.5 52 5.1 WSW 44 59 24 32 1014.5 1014.5 0.0
17/11:05am 17.4 8.9 8.4 55 4.6 WSW 43 61 23 33 1014.6 1014.6 0.0
17/11:00am 17.5 9.0 8.6 56 4.6 WSW 43 54 23 29 1014.7 1014.7 0.0
17/10:30am 15.7 7.3 9.5 66 3.2 WSW 44 57 24 31 1015.0 1015.0 0.0
17/10:00am 16.4 7.6 8.1 58 4.2 WSW 44 57 24 31 1015.0 1015.0 0.0
17/09:30am 16.4 8.0 7.4 55 4.5 WSW 41 52 22 28 1014.7 1014.7 0.0
17/09:00am 15.7 8.3 8.2 61 3.8 WSW 37 48 20 26 1014.6 1014.6 0.2
17/08:30am 15.6 6.9 7.8 59 3.9 WSW 43 56 23 30 1014.5 1014.5 0.2
17/08:00am 14.7 5.0 9.2 69 2.8 WSW 50 61 27 33 1014.5 1014.5 0.2
17/07:45am 14.8 7.0 8.2 64 3.3 WSW 39 57 21 31 1014.2 1014.2 0.2
17/07:30am 15.1 7.1 9.0 67 3.1 WSW 41 52 22 28 1013.8 1013.8 0.2
17/07:00am 15.3 7.5 8.4 63 3.5 WSW 39 52 21 28 1013.6 1013.6 0.2
17/06:30am 15.2 7.7 8.0 62 3.6 WSW 37 46 20 25 1013.3 1013.3 0.2
17/06:00am 15.1 7.0 8.8 66 3.2 W 41 50 22 27 1012.9 1012.9 0.2
17/05:30am 15.1 8.0 9.5 69 2.9 WSW 37 50 20 27 1012.6 1012.6 0.2
17/05:00am 14.9 7.4 9.5 70 2.8 WSW 39 48 21 26 1012.4 1012.4 0.2
17/04:30am 15.9 7.7 8.0 59 4.0 WSW 41 56 22 30 1012.0 1012.0 0.2
17/04:00am 16.0 7.9 8.5 61 3.8 WSW 41 54 22 29 1011.5 1011.5 0.2
17/03:30am 15.9 8.4 9.6 66 3.3 WSW 39 50 21 27 1011.6 1011.6 0.2
17/03:00am 16.0 8.1 9.2 64 3.5 WSW 41 54 22 29 1011.5 1011.5 0.2
17/02:31am 16.2 7.2 8.8 61 3.8 WSW 46 65 25 35 1011.5 1011.5 0.2
17/02:30am 16.0 6.6 8.8 62 3.7 WSW 48 65 26 35 1011.5 1011.5 0.2
17/02:01am 16.2 7.6 11.6 74 2.5 WSW 48 69 26 37 1011.4 1011.4 0.2
17/02:00am 16.3 8.0 11.5 73 2.6 WSW 46 61 25 33 1011.5 1011.5 0.2
17/01:30am 16.4 8.1 10.1 66 3.3 WSW 44 59 24 32 1011.1 1011.1 0.2
17/01:00am 16.6 7.5 9.7 63 3.6 WSW 48 65 26 35 1011.2 1011.2 0.2
17/12:31am 16.8 7.9 9.3 61 3.9 WSW 46 65 25 35 1010.9 1010.9 0.2
17/12:30am 16.8 8.4 9.8 63 3.7 WSW 44 61 24 33 1010.9 1010.9 0.2
17/12:00am 16.7 7.3 10.1 65 3.5 WSW 50 69 27 37 1010.3 1010.3 0.2
 
Date/Time
EDT
Temp
°C
App
Temp
°C
Dew
Point
°C
Rel
Hum
%
Delta-T
°C
Wind Press
QNH
hPa
Press
MSL
hPa
Rain since
9am
mm
Dir  Spd
km/h
Gust
km/h
Spd
kts
Gust
kts
16/11:31pm 17.0 6.2 9.1 59 4.1 WSW 56 78 30 42 1009.9 1009.9 0.2
16/11:30pm 16.9 6.7 9.9 63 3.7 WSW 54 70 29 38 1010.0 1010.0 0.2
16/11:07pm 17.2 6.7 10.2 63 3.7 WSW 56 74 30 40 1010.1 1010.1 0.2
16/11:00pm 17.2 6.4 10.0 62 3.8 WSW 57 74 31 40 1009.9 1009.9 0.2
16/10:30pm 17.3 7.5 10.1 62 3.8 WSW 52 80 28 43 1009.9 1009.9 0.2
16/10:00pm 17.1 7.7 11.6 70 3.0 WSW 52 70 28 38 1009.6 1009.6 0.2
16/09:56pm 17.4 8.2 12.1 71 2.9 WSW 52 70 28 38 1009.6 1009.6 0.2
16/09:34pm 17.6 11.1 13.0 74 2.6 SW 39 69 21 37 1009.3 1009.3 0.2
16/09:32pm 17.9 12.1 12.7 71 2.9 WSW 35 54 19 29 1009.4 1009.4 0.2
16/09:30pm 18.0 12.0 10.1 60 4.2 WSW 32 41 17 22 1009.5 1009.5 0.2
16/09:00pm 17.8 11.3 9.0 56 4.6 WSW 33 41 18 22 1009.0 1009.0 0.2
16/08:30pm 17.8 10.8 8.5 54 4.8 WSW 35 43 19 23 1008.7 1008.7 0.2
16/08:00pm 18.0 10.4 9.2 56 4.6 WSW 39 54 21 29 1008.6 1008.6 0.2
16/07:30pm 18.0 10.1 9.4 57 4.5 WSW 41 52 22 28 1008.6 1008.6 0.2
16/07:01pm 18.2 9.5 8.5 53 5.0 WSW 44 67 24 36 1008.3 1008.3 0.2
16/07:00pm 18.2 9.5 8.5 53 5.0 WSW 44 57 24 31 1008.4 1008.4 0.2
16/06:33pm 18.0 7.6 9.4 57 4.5 WSW 54 72 29 39 1008.2 1008.2 0.2
16/06:30pm 18.0 7.1 9.0 55 4.7 WSW 56 72 30 39 1008.1 1008.1 0.2
16/06:04pm 17.6 7.1 8.9 56 4.5 WSW 54 72 29 39 1007.8 1007.8 0.2
16/06:00pm 17.9 6.9 8.4 53 4.9 WSW 56 72 30 39 1007.8 1007.8 0.2
16/05:39pm 17.9 7.1 9.3 57 4.5 WSW 56 74 30 40 1007.5 1007.5 0.2
16/05:30pm 18.3 8.0 9.8 57 4.5 WSW 54 67 29 36 1007.6 1007.6 0.2
16/05:00pm 17.9 8.5 8.9 55 4.7 WSW 48 69 26 37 1007.7 1007.7 0.2
16/04:39pm 17.8 9.0 9.7 59 4.3 WSW 46 69 25 37 1007.8 1007.8 0.2
16/04:30pm 17.7 8.9 11.1 65 3.6 WSW 48 63 26 34 1007.9 1007.9 0.2
16/04:23pm 18.5 10.6 11.6 64 3.8 WSW 44 63 24 34 1007.9 1007.9 0.2
16/04:00pm 16.5 8.3 10.5 67 3.2 W 44 56 24 30 1008.0 1008.0 0.2
16/03:30pm 17.1 6.1 10.6 65 3.5 WSW 59 82 32 44 1007.9 1007.9 0.2
16/03:01pm 16.9 5.7 11.2 69 3.1 WSW 61 80 33 43 1007.8 1007.8 0.2
16/03:00pm 16.8 5.3 11.5 71 2.9 WSW 63 80 34 43 1007.8 1007.8 0.2
16/02:55pm 17.1 5.8 11.0 67 3.3 SW 61 80 33 43 1007.5 1007.5 0.2
16/02:48pm 17.3 7.7 10.8 65 3.5 WSW 52 70 28 38 1007.4 1007.4 0.2
16/02:30pm 17.4 7.1 11.7 69 3.1 SW 57 70 31 38 1007.6 1007.6 0.2
16/02:01pm 17.2 5.7 10.0 62 3.8 WSW 61 82 33 44 1007.6 1007.6 0.2
16/02:00pm 17.3 5.7 9.9 62 3.9 WSW 61 76 33 41 1007.5 1007.5 0.2
16/01:30pm 17.0 6.3 11.5 70 3.0 WSW 59 72 32 39 1007.3 1007.3 0.2
16/01:05pm 16.1 5.3 12.5 79 2.0 WSW 61 82 33 44 1007.2 1007.2 0.0
16/01:00pm 17.9 6.7 10.0 60 4.2 WSW 59 76 32 41 1007.3 1007.3 0.0
16/12:36pm 17.7 8.4 10.4 62 3.9 WSW 50 74 27 40 1007.0 1007.0 0.0
16/12:30pm 17.2 8.3 10.5 64 3.6 WSW 48 61 26 33 1007.0 1007.0 0.0
16/12:00pm 17.2 5.8 9.1 59 4.2 WSW 59 78 32 42 1006.8 1006.8 0.0
16/11:30am 17.0 5.8 9.8 62 3.8 WSW 59 80 32 43 1006.3 1006.3 0.0
16/11:11am 18.6 7.9 8.1 50 5.4 WSW 54 72 29 39 1006.0 1006.0 0.0
16/11:00am 18.5 8.3 8.5 52 5.2 WSW 52 69 28 37 1006.1 1006.1 0.0
16/10:35am 17.6 6.8 7.8 52 5.0 WSW 54 72 29 39 1005.9 1005.9 0.0
16/10:30am 17.9 7.7 8.4 53 4.9 WSW 52 67 28 36 1005.9 1005.9 0.0
16/10:00am 17.4 6.5 8.7 56 4.5 WSW 56 74 30 40 1005.6 1005.6 0.0
16/09:30am 16.6 5.5 8.2 57 4.3 WSW 56 76 30 41 1005.7 1005.7 0.0
16/09:15am 16.8 6.4 9.1 60 4.0 WSW 54 72 29 39 1005.8 1005.8 0.0
16/09:00am 16.1 4.5 8.2 59 4.0 WSW 59 74 32 40 1005.7 1005.7 5.2
16/08:45am 15.8 4.8 8.3 61 3.8 WSW 56 74 30 40 1005.8 1005.8 5.2
16/08:30am 15.7 5.5 8.4 62 3.7 WSW 52 69 28 37 1005.8 1005.8 5.2
16/08:00am 15.2 4.8 7.8 61 3.7 W 52 63 28 34 1005.7 1005.7 5.2
16/07:49am 14.7 3.8 7.2 61 3.7 W 54 76 29 41 1005.6 1005.6 5.2
16/07:30am 14.0 3.1 7.3 64 3.3 W 54 67 29 36 1005.5 1005.5 5.2
16/07:00am 13.7 3.2 7.2 65 3.2 W 52 61 28 33 1005.2 1005.2 5.2
16/06:34am 13.2 2.5 8.0 71 2.6 W 54 72 29 39 1005.1 1005.1 5.2
16/06:30am 13.2 2.0 7.7 69 2.7 W 56 72 30 39 1005.0 1005.0 5.2
16/06:25am 13.1 2.7 7.8 70 2.6 W 52 72 28 39 1004.9 1004.9 5.2
16/06:00am 13.2 3.1 7.3 67 2.9 W 50 65 27 35 1004.6 1004.5 5.2
16/05:30am 13.2 2.7 7.3 67 2.9 W 52 70 28 38 1004.7 1004.6 5.2

Other formats

Comma delimited format used in spreadsheet applications
http://www.bom.gov.au/fwo/IDV60801/IDV60801.94933.axf

JavaScript Object Notation format (JSON) in row-major order
http://www.bom.gov.au/fwo/IDV60801/IDV60801.94933.json

Data quality

Most of these data are generated automatically and are frequently updated. Quality checks on data are not normally performed. It is possible for incorrect values to appear. Refer to information at About Latest Weather Observations and please check the disclaimer before using these data.